Time;durP1;ratioP1;P1;durP2;ratioP2;P2;SDS_P1;SDS_P2;PMS_P1;PMS_P2;Temp;Humidity;BMP_temperature;BMP_pressure;BME280_temperature;BME280_humidity;BME280_pressure;Samples;Min_cycle;Max_cycle;Signal;HPM_P1;HPM_P2
2021/01/14 00:01:37;;;;;;;9.15;7.30;;;;;;;;;;5096294;28;20195;-63
2021/01/14 00:04:03;;;;;;;10.30;7.30;;;;;;;;;;5096093;28;20202;-64
2021/01/14 00:06:30;;;;;;;10.80;7.60;;;;;;;;;;5097424;28;20207;-64
2021/01/14 00:08:57;;;;;;;10.25;6.80;;;;;;;;;;5096438;28;20215;-64
2021/01/14 00:11:27;;;;;;;7.07;6.35;;;;;;;;;;5096596;28;20658;-66
2021/01/14 00:13:53;;;;;;;7.75;6.95;;;;;;;;;;5100373;27;20601;-63
2021/01/14 00:16:21;;;;;;;7.95;6.32;;;;;;;;;;5120648;27;20654;-63
2021/01/14 00:18:47;;;;;;;8.13;7.00;;;;;;;;;;5096539;28;20203;-63
2021/01/14 00:21:17;;;;;;;8.52;7.65;;;;;;;;;;5096272;28;20201;-64
2021/01/14 00:23:44;;;;;;;8.00;6.75;;;;;;;;;;5095770;28;20199;-63
2021/01/14 00:26:10;;;;;;;8.05;6.40;;;;;;;;;;5096210;28;20199;-63
2021/01/14 00:28:39;;;;;;;8.95;6.15;;;;;;;;;;5095853;28;20215;-65
2021/01/14 00:31:05;;;;;;;7.22;6.53;;;;;;;;;;5095808;28;20199;-63
2021/01/14 00:33:32;;;;;;;5.65;5.10;;;;;;;;;;5096079;28;20206;-63
2021/01/14 00:35:58;;;;;;;6.60;5.53;;;;;;;;;;5095730;28;20217;-63
2021/01/14 00:38:25;;;;;;;6.45;5.80;;;;;;;;;;5095283;28;20707;-63
2021/01/14 00:40:54;;;;;;;8.95;5.70;;;;;;;;;;5094315;28;20247;-63
2021/01/14 00:43:21;;;;;;;6.57;5.90;;;;;;;;;;5095866;28;20222;-63
2021/01/14 00:45:57;;;;;;;5.07;4.68;;;;;;;;;;5125066;27;20222;-63
2021/01/14 00:48:25;;;;;;;6.25;5.57;;;;;;;;;;5094672;28;20234;-64
2021/01/14 00:50:51;;;;;;;7.10;5.35;;;;;;;;;;5095088;28;20199;-63
2021/01/14 00:53:18;;;;;;;5.40;4.80;;;;;;;;;;5095216;28;20661;-63
2021/01/14 00:55:46;;;;;;;6.28;5.30;;;;;;;;;;5095337;28;20187;-63
2021/01/14 00:58:12;;;;;;;6.10;5.00;;;;;;;;;;5095342;28;20196;-64
2021/01/14 01:00:42;;;;;;;5.40;4.90;;;;;;;;;;5095847;28;20358;-63
2021/01/14 01:03:11;;;;;;;5.10;4.60;;;;;;;;;;5095280;28;20275;-64
2021/01/14 01:05:41;;;;;;;5.85;5.25;;;;;;;;;;5095804;28;20534;-63
2021/01/14 01:08:18;;;;;;;6.72;5.28;;;;;;;;;;5095126;28;20195;-64
2021/01/14 01:10:46;;;;;;;5.93;4.88;;;;;;;;;;5094290;28;20207;-63
2021/01/14 01:13:13;;;;;;;5.07;4.68;;;;;;;;;;5095283;28;20606;-63
2021/01/14 01:15:41;;;;;;;5.30;4.80;;;;;;;;;;5124291;27;20209;-63
2021/01/14 01:18:09;;;;;;;9.93;5.13;;;;;;;;;;5094881;28;20734;-61
2021/01/14 01:20:37;;;;;;;5.32;3.65;;;;;;;;;;5094836;28;20200;-63
2021/01/14 01:23:04;;;;;;;5.15;4.65;;;;;;;;;;5094340;28;20199;-63
2021/01/14 01:25:30;;;;;;;5.32;4.90;;;;;;;;;;5095335;28;20245;-63
2021/01/14 01:27:57;;;;;;;4.88;4.47;;;;;;;;;;5095024;28;20200;-63
2021/01/14 01:30:25;;;;;;;4.90;4.40;;;;;;;;;;5094773;28;20211;-63
2021/01/14 01:32:52;;;;;;;5.90;4.30;;;;;;;;;;5094577;28;20194;-63
2021/01/14 01:35:18;;;;;;;5.20;4.70;;;;;;;;;;5094962;28;20277;-63
2021/01/14 01:37:45;;;;;;;5.55;3.97;;;;;;;;;;5094976;28;20195;-63
2021/01/14 01:40:14;;;;;;;5.85;4.22;;;;;;;;;;5094712;28;20203;-63
2021/01/14 01:42:41;;;;;;;4.50;4.20;;;;;;;;;;5094268;28;20665;-63
2021/01/14 01:45:08;;;;;;;4.70;4.30;;;;;;;;;;5123855;27;20212;-61
2021/01/14 01:47:36;;;;;;;4.40;4.00;;;;;;;;;;5094231;28;20223;-64
2021/01/14 01:50:04;;;;;;;4.43;4.05;;;;;;;;;;5094473;28;20689;-64
2021/01/14 01:52:33;;;;;;;4.43;4.05;;;;;;;;;;5094414;28;20710;-63
2021/01/14 01:55:01;;;;;;;4.57;4.18;;;;;;;;;;5094477;28;20560;-63
2021/01/14 01:57:30;;;;;;;13.40;5.03;;;;;;;;;;5094119;28;20319;-63
2021/01/14 01:59:57;;;;;;;4.80;3.53;;;;;;;;;;5093709;28;20233;-63
2021/01/14 02:02:28;;;;;;;3.55;3.28;;;;;;;;;;5094096;28;20215;-63
2021/01/14 02:04:55;;;;;;;3.53;3.22;;;;;;;;;;5094267;28;20182;-63
2021/01/14 02:07:28;;;;;;;3.35;3.05;;;;;;;;;;5094202;28;20209;-63
2021/01/14 02:09:56;;;;;;;4.40;4.00;;;;;;;;;;5094388;28;20211;-63
2021/01/14 02:12:25;;;;;;;3.60;3.30;;;;;;;;;;5093359;28;20209;-63
2021/01/14 02:14:55;;;;;;;3.20;3.00;;;;;;;;;;5117386;27;20668;-63
2021/01/14 02:17:26;;;;;;;3.17;2.90;;;;;;;;;;5097570;27;20244;-63
2021/01/14 02:19:55;;;;;;;3.38;3.13;;;;;;;;;;5092648;28;20568;-63
2021/01/14 02:22:45;;;;;;;2.90;2.70;;;;;;;;;;5094027;28;20203;-63
2021/01/14 02:25:15;;;;;;;2.92;2.72;;;;;;;;;;5092543;28;20207;-63
2021/01/14 02:27:43;;;;;;;2.83;2.63;;;;;;;;;;5094264;28;20237;-63
2021/01/14 02:30:13;;;;;;;3.83;3.45;;;;;;;;;;5093938;28;20225;-63
2021/01/14 02:32:43;;;;;;;2.92;2.70;;;;;;;;;;5093931;28;20568;-64
2021/01/14 02:35:09;;;;;;;2.97;2.75;;;;;;;;;;5094181;28;20249;-63
2021/01/14 02:37:36;;;;;;;3.90;2.80;;;;;;;;;;5093905;28;20211;-63
2021/01/14 02:40:06;;;;;;;2.70;2.50;;;;;;;;;;5093814;28;20187;-63
2021/01/14 02:42:33;;;;;;;2.75;2.35;;;;;;;;;;5094056;28;20203;-63
2021/01/14 02:45:00;;;;;;;2.92;2.72;;;;;;;;;;5120038;27;20547;-63
2021/01/14 02:47:30;;;;;;;2.53;2.33;;;;;;;;;;5093051;28;20238;-63
2021/01/14 02:50:03;;;;;;;3.45;2.85;;;;;;;;;;5093297;28;20705;-63
2021/01/14 02:52:30;;;;;;;2.72;2.53;;;;;;;;;;5093542;28;20678;-63
2021/01/14 02:54:59;;;;;;;3.15;2.30;;;;;;;;;;5093599;28;20210;-63
2021/01/14 02:57:26;;;;;;;2.40;2.20;;;;;;;;;;5093695;28;20191;-63
2021/01/14 02:59:54;;;;;;;2.80;2.60;;;;;;;;;;5093585;28;20207;-63
2021/01/14 03:02:22;;;;;;;2.10;1.95;;;;;;;;;;5093331;28;20222;-63
2021/01/14 03:04:48;;;;;;;3.00;2.80;;;;;;;;;;5092937;28;20218;-63
2021/01/14 03:07:15;;;;;;;2.50;2.30;;;;;;;;;;5093754;28;20188;-63
2021/01/14 03:09:43;;;;;;;4.85;2.35;;;;;;;;;;5093731;28;20658;-63
2021/01/14 03:12:09;;;;;;;13.68;10.02;;;;;;;;;;5095070;28;20257;-63
2021/01/14 03:14:36;;;;;;;3.00;2.80;;;;;;;;;;5118185;27;20214;-63
2021/01/14 03:17:03;;;;;;;2.72;2.53;;;;;;;;;;5105895;27;20200;-64
2021/01/14 03:19:31;;;;;;;2.70;2.50;;;;;;;;;;5097270;28;20229;-63
2021/01/14 03:22:00;;;;;;;2.95;2.70;;;;;;;;;;5097145;28;20195;-63
2021/01/14 03:24:28;;;;;;;3.70;2.72;;;;;;;;;;5097010;28;20200;-63
2021/01/14 03:26:55;;;;;;;2.35;2.20;;;;;;;;;;5097082;28;20192;-63
2021/01/14 03:29:24;;;;;;;2.35;2.13;;;;;;;;;;5097318;28;20601;-63
2021/01/14 03:31:51;;;;;;;2.67;2.47;;;;;;;;;;5095003;28;20207;-63
2021/01/14 03:34:18;;;;;;;3.00;2.80;;;;;;;;;;5095529;28;20206;-63
2021/01/14 03:36:56;;;;;;;2.85;2.65;;;;;;;;;;5096789;28;20226;-63
2021/01/14 03:39:27;;;;;;;3.05;2.40;;;;;;;;;;5094878;28;20226;-63
2021/01/14 03:41:55;;;;;;;2.60;2.40;;;;;;;;;;5096573;28;20203;-63
2021/01/14 03:44:22;;;;;;;3.40;2.75;;;;;;;;;;5112116;27;20201;-63
2021/01/14 03:46:49;;;;;;;5.22;4.70;;;;;;;;;;5109873;27;20709;-63
2021/01/14 03:49:18;;;;;;;7.18;3.30;;;;;;;;;;5096315;28;20670;-63
2021/01/14 03:51:46;;;;;;;4.82;2.90;;;;;;;;;;5096368;28;20244;-63
2021/01/14 03:54:15;;;;;;;3.45;3.15;;;;;;;;;;5096271;28;20566;-63
2021/01/14 03:56:42;;;;;;;4.13;3.83;;;;;;;;;;5096410;28;20202;-63
2021/01/14 03:59:09;;;;;;;3.17;2.97;;;;;;;;;;5096272;28;20264;-63
2021/01/14 04:01:36;;;;;;;3.85;2.60;;;;;;;;;;5096029;28;20207;-64
2021/01/14 04:04:04;;;;;;;4.07;3.20;;;;;;;;;;5096295;28;20207;-64
2021/01/14 04:06:33;;;;;;;3.67;3.03;;;;;;;;;;5094865;28;20203;-63
2021/01/14 04:09:04;;;;;;;3.38;2.92;;;;;;;;;;5096326;28;20171;-63
2021/01/14 04:11:30;;;;;;;4.28;3.38;;;;;;;;;;5095855;28;20187;-64
2021/01/14 04:13:57;;;;;;;3.78;3.22;;;;;;;;;;5100114;27;20203;-64
2021/01/14 04:16:26;;;;;;;3.65;3.35;;;;;;;;;;5118416;27;20202;-65
2021/01/14 04:18:52;;;;;;;3.78;3.35;;;;;;;;;;5096095;28;20236;-63
2021/01/14 04:21:21;;;;;;;3.28;2.97;;;;;;;;;;5095909;28;20191;-63
2021/01/14 04:23:47;;;;;;;9.10;3.28;;;;;;;;;;5095253;28;20245;-63
2021/01/14 04:26:18;;;;;;;5.82;3.03;;;;;;;;;;5096208;28;20525;-63
2021/01/14 04:28:44;;;;;;;3.63;3.33;;;;;;;;;;5096130;28;20195;-63
2021/01/14 04:31:14;;;;;;;3.85;2.97;;;;;;;;;;5095786;28;20297;-63
2021/01/14 04:33:41;;;;;;;4.88;3.85;;;;;;;;;;5095828;28;20278;-64
2021/01/14 04:36:09;;;;;;;6.22;3.75;;;;;;;;;;5095643;28;20620;-63
2021/01/14 04:38:38;;;;;;;7.22;4.00;;;;;;;;;;5095583;28;20219;-63
2021/01/14 04:41:05;;;;;;;4.45;4.05;;;;;;;;;;5095713;28;20196;-63
2021/01/14 04:43:33;;;;;;;5.05;3.40;;;;;;;;;;5095552;28;20662;-63
2021/01/14 04:46:05;;;;;;;3.85;3.10;;;;;;;;;;5114237;27;20207;-63
2021/01/14 04:48:34;;;;;;;5.30;4.05;;;;;;;;;;5094850;28;20250;-64
2021/01/14 04:51:09;;;;;;;5.18;3.40;;;;;;;;;;5095363;28;20207;-63
2021/01/14 04:53:37;;;;;;;4.50;4.10;;;;;;;;;;5095847;28;20203;-63
2021/01/14 04:56:04;;;;;;;4.22;3.65;;;;;;;;;;5094869;28;20203;-63
2021/01/14 04:58:36;;;;;;;4.70;4.03;;;;;;;;;;5095104;28;20200;-64
2021/01/14 05:01:24;;;;;;;5.00;3.90;;;;;;;;;;5095117;28;20199;-64
2021/01/14 05:03:55;;;;;;;7.60;4.00;;;;;;;;;;5095084;28;20653;-64
2021/01/14 05:06:22;;;;;;;4.18;3.70;;;;;;;;;;5094264;28;20203;-63
2021/01/14 05:08:49;;;;;;;3.83;3.40;;;;;;;;;;5095118;28;20191;-63
2021/01/14 05:11:18;;;;;;;7.05;4.53;;;;;;;;;;5095056;28;20211;-63
2021/01/14 05:13:46;;;;;;;9.05;4.55;;;;;;;;;;5095981;27;20282;-63
2021/01/14 05:16:14;;;;;;;6.90;4.20;;;;;;;;;;5122360;27;20196;-63
2021/01/14 05:18:41;;;;;;;12.82;4.38;;;;;;;;;;5095402;28;20199;-63
2021/01/14 05:21:11;;;;;;;5.05;4.13;;;;;;;;;;5093534;28;20206;-63
2021/01/14 05:23:38;;;;;;;4.13;3.78;;;;;;;;;;5094034;28;20206;-61
2021/01/14 05:26:05;;;;;;;5.43;4.47;;;;;;;;;;5094724;28;20203;-63
2021/01/14 05:28:33;;;;;;;5.30;4.13;;;;;;;;;;5095291;28;20623;-64
2021/01/14 05:31:17;;;;;;;6.15;4.40;;;;;;;;;;5094330;28;20223;-63
2021/01/14 05:33:57;;;;;;;6.05;4.05;;;;;;;;;;5094890;28;20584;-63
2021/01/14 05:36:26;;;;;;;4.45;4.05;;;;;;;;;;5094482;28;20190;-63
2021/01/14 05:38:52;;;;;;;7.70;4.40;;;;;;;;;;5094820;28;20204;-63
2021/01/14 05:41:28;;;;;;;5.50;4.93;;;;;;;;;;5094701;28;20199;-63
2021/01/14 05:43:55;;;;;;;5.53;4.68;;;;;;;;;;5097462;27;20622;-63
2021/01/14 05:46:23;;;;;;;7.18;5.20;;;;;;;;;;5109699;27;20641;-63
2021/01/14 05:48:50;;;;;;;5.47;4.75;;;;;;;;;;5094490;28;20700;-64
2021/01/14 05:51:21;;;;;;;8.13;5.25;;;;;;;;;;5094091;28;20234;-64
2021/01/14 05:54:02;;;;;;;5.72;5.22;;;;;;;;;;5094856;28;20210;-63
2021/01/14 05:56:36;;;;;;;7.05;5.72;;;;;;;;;;5094051;28;20207;-63
2021/01/14 05:59:04;;;;;;;8.80;6.60;;;;;;;;;;5094489;28;20206;-63
2021/01/14 06:01:53;;;;;;;6.20;5.60;;;;;;;;;;5094233;28;20167;-63
2021/01/14 06:04:20;;;;;;;7.97;7.18;;;;;;;;;;5094334;28;20622;-63
2021/01/14 06:06:50;;;;;;;11.52;8.65;;;;;;;;;;5092886;28;20577;-63
2021/01/14 06:09:18;;;;;;;7.45;6.32;;;;;;;;;;5094655;28;20606;-63
2021/01/14 06:11:48;;;;;;;8.10;7.25;;;;;;;;;;5094258;28;20194;-63
2021/01/14 06:14:26;;;;;;;11.25;6.57;;;;;;;;;;5102228;27;20209;-63
2021/01/14 06:16:54;;;;;;;10.98;7.80;;;;;;;;;;5096444;28;20564;-63
2021/01/14 06:19:24;;;;;;;12.00;7.30;;;;;;;;;;5094385;28;20199;-63
2021/01/14 06:21:58;;;;;;;9.60;7.93;;;;;;;;;;5094663;28;20528;-64
2021/01/14 06:24:27;;;;;;;11.50;10.30;;;;;;;;;;5094097;28;20249;-63
2021/01/14 06:26:55;;;;;;;14.43;9.45;;;;;;;;;;5094302;28;20202;-63
2021/01/14 06:29:24;;;;;;;6.55;5.95;;;;;;;;;;5093896;28;20205;-63
2021/01/14 06:31:51;;;;;;;10.55;6.55;;;;;;;;;;5093721;28;20196;-66
2021/01/14 06:34:19;;;;;;;8.55;6.57;;;;;;;;;;5093949;28;20704;-63
2021/01/14 06:36:48;;;;;;;7.40;5.85;;;;;;;;;;5094064;28;20203;-63
2021/01/14 06:39:16;;;;;;;8.52;6.20;;;;;;;;;;5094022;28;20287;-64
2021/01/14 06:41:47;;;;;;;8.38;6.55;;;;;;;;;;5093824;28;20203;-63
2021/01/14 06:48:04;;;;;;;;;;;;;;;;;;;;;
2021/01/14 06:51:04;;;;;;;10.27;7.45;;;;;;;;;;5047811;28;20258;-65
2021/01/14 06:53:38;;;;;;;9.25;6.47;;;;;;;;;;5063674;28;20281;-65
2021/01/14 06:56:08;;;;;;;13.23;6.28;;;;;;;;;;5081751;28;20207;-64
2021/01/14 06:58:38;;;;;;;11.10;7.28;;;;;;;;;;5097432;28;20654;-64
2021/01/14 07:01:04;;;;;;;10.13;7.40;;;;;;;;;;5097494;28;20199;-65
2021/01/14 07:03:43;;;;;;;14.27;7.63;;;;;;;;;;5097865;28;20203;-65
2021/01/14 07:06:13;;;;;;;11.05;7.22;;;;;;;;;;5097667;28;20581;-65
2021/01/14 07:08:41;;;;;;;11.52;8.20;;;;;;;;;;5097204;28;20184;-65
2021/01/14 07:11:18;;;;;;;10.48;7.57;;;;;;;;;;5097267;28;20230;-64
2021/01/14 07:13:54;;;;;;;9.55;7.28;;;;;;;;;;5097504;27;20195;-64
2021/01/14 07:16:23;;;;;;;11.07;7.57;;;;;;;;;;5112931;27;20237;-65
2021/01/14 07:18:51;;;;;;;11.05;8.40;;;;;;;;;;5097018;28;20191;-65
2021/01/14 07:21:19;;;;;;;12.45;8.70;;;;;;;;;;5095953;28;20320;-65
2021/01/14 07:23:49;;;;;;;11.90;8.20;;;;;;;;;;5097051;28;20206;-65
2021/01/14 07:26:21;;;;;;;15.07;9.48;;;;;;;;;;5097154;28;20218;-65
2021/01/14 07:28:49;;;;;;;14.52;8.82;;;;;;;;;;5097133;28;20187;-65
2021/01/14 07:31:27;;;;;;;10.73;7.82;;;;;;;;;;5096613;28;20633;-65
2021/01/14 07:33:55;;;;;;;13.00;7.55;;;;;;;;;;5096617;28;20191;-65
2021/01/14 07:36:26;;;;;;;12.43;8.23;;;;;;;;;;5096592;28;20282;-65
2021/01/14 07:38:57;;;;;;;13.30;8.50;;;;;;;;;;5095479;28;20228;-65
2021/01/14 07:41:24;;;;;;;11.55;7.80;;;;;;;;;;5096526;28;20203;-65
2021/01/14 07:43:54;;;;;;;10.50;8.45;;;;;;;;;;5100474;27;20673;-65
2021/01/14 07:46:22;;;;;;;9.95;7.25;;;;;;;;;;5120602;27;20203;-65
2021/01/14 07:48:52;;;;;;;13.13;8.68;;;;;;;;;;5096642;28;20227;-65
2021/01/14 07:51:19;;;;;;;18.00;9.65;;;;;;;;;;5096434;28;20264;-65
2021/01/14 07:54:06;;;;;;;17.63;11.02;;;;;;;;;;5096885;28;20256;-65
2021/01/14 07:56:55;;;;;;;13.07;9.50;;;;;;;;;;5096519;28;20195;-65
2021/01/14 07:59:28;;;;;;;11.95;8.43;;;;;;;;;;5095048;28;20713;-64
2021/01/14 08:02:01;;;;;;;12.13;8.30;;;;;;;;;;5095985;28;20210;-64
2021/01/14 08:04:29;;;;;;;10.25;8.57;;;;;;;;;;5096389;28;20257;-65
2021/01/14 08:06:56;;;;;;;10.93;8.50;;;;;;;;;;5096224;28;20563;-65
2021/01/14 08:09:22;;;;;;;23.13;13.80;;;;;;;;;;5095029;28;20380;-65
2021/01/14 08:11:49;;;;;;;20.20;9.82;;;;;;;;;;5096060;28;20231;-65
2021/01/14 08:14:22;;;;;;;16.02;9.90;;;;;;;;;;5108037;27;20635;-65
2021/01/14 08:16:51;;;;;;;12.18;9.15;;;;;;;;;;5108140;27;20286;-65
2021/01/14 08:19:18;;;;;;;12.30;8.50;;;;;;;;;;5095987;28;20268;-65
2021/01/14 08:22:05;;;;;;;12.68;9.63;;;;;;;;;;5095888;28;20225;-63
2021/01/14 08:24:45;;;;;;;11.65;9.43;;;;;;;;;;5095731;28;20642;-64
2021/01/14 08:27:13;;;;;;;11.10;7.63;;;;;;;;;;5096309;28;20207;-64
2021/01/14 08:29:54;;;;;;;11.70;8.32;;;;;;;;;;5095497;28;20661;-63
2021/01/14 08:32:29;;;;;;;11.02;7.93;;;;;;;;;;5095868;28;20195;-64
2021/01/14 08:35:15;;;;;;;14.40;9.35;;;;;;;;;;5095688;28;20218;-64
2021/01/14 08:37:48;;;;;;;10.93;9.05;;;;;;;;;;5095656;28;20561;-63
2021/01/14 08:40:16;;;;;;;10.23;8.27;;;;;;;;;;5095463;28;20199;-64
2021/01/14 08:42:44;;;;;;;19.67;10.02;;;;;;;;;;5095536;28;20210;-64
2021/01/14 08:45:15;;;;;;;17.60;9.55;;;;;;;;;;5124559;27;20688;-65
2021/01/14 08:47:58;;;;;;;21.42;10.23;;;;;;;;;;5095352;28;20269;-65
2021/01/14 08:50:34;;;;;;;14.77;10.52;;;;;;;;;;5094981;28;20363;-65
2021/01/14 08:53:05;;;;;;;17.30;10.98;;;;;;;;;;5095618;28;20206;-65
2021/01/14 08:55:33;;;;;;;17.52;11.55;;;;;;;;;;5095095;28;20203;-65
2021/01/14 08:58:02;;;;;;;19.85;11.20;;;;;;;;;;5095343;28;20191;-65
2021/01/14 09:00:31;;;;;;;17.75;12.20;;;;;;;;;;5094782;28;20207;-64
2021/01/14 09:02:58;;;;;;;15.25;11.80;;;;;;;;;;5094992;28;20207;-65
2021/01/14 09:05:28;;;;;;;30.40;17.48;;;;;;;;;;5095091;28;20207;-65
2021/01/14 09:08:04;;;;;;;14.85;11.68;;;;;;;;;;5094998;28;20229;-65
2021/01/14 09:10:43;;;;;;;19.02;12.82;;;;;;;;;;5094705;28;20223;-65
2021/01/14 09:13:10;;;;;;;22.25;13.57;;;;;;;;;;5094839;28;20199;-64
2021/01/14 09:15:37;;;;;;;22.83;12.25;;;;;;;;;;5124260;27;20207;-64
2021/01/14 09:18:04;;;;;;;22.60;12.27;;;;;;;;;;5095106;28;20269;-64
2021/01/14 09:20:31;;;;;;;26.38;14.18;;;;;;;;;;5094759;28;20192;-64
2021/01/14 09:23:19;;;;;;;17.40;10.63;;;;;;;;;;5094219;28;20211;-64
2021/01/14 09:25:47;;;;;;;13.98;10.15;;;;;;;;;;5103403;28;20190;-64
2021/01/14 09:28:15;;;;;;;20.20;12.65;;;;;;;;;;5114528;28;20621;-64
2021/01/14 09:30:42;;;;;;;30.85;15.10;;;;;;;;;;5114411;28;20240;-64
2021/01/14 09:33:10;;;;;;;22.35;12.68;;;;;;;;;;5114316;28;20221;-64
2021/01/14 09:35:37;;;;;;;30.10;15.85;;;;;;;;;;5114246;28;20722;-64
2021/01/14 09:38:05;;;;;;;12.80;9.85;;;;;;;;;;5096410;28;20211;-64
2021/01/14 09:40:32;;;;;;;38.38;15.45;;;;;;;;;;5095280;28;20195;-64
2021/01/14 09:43:02;;;;;;;21.40;14.02;;;;;;;;;;5094182;28;20196;-64
2021/01/14 09:45:29;;;;;;;16.35;10.13;;;;;;;;;;5113577;27;20289;-64
2021/01/14 09:47:57;;;;;;;30.98;14.45;;;;;;;;;;5093757;28;20710;-64
2021/01/14 09:50:27;;;;;;;17.38;10.77;;;;;;;;;;5094212;28;20222;-64
2021/01/14 09:53:08;;;;;;;15.13;10.30;;;;;;;;;;5094451;28;20191;-64
2021/01/14 09:55:37;;;;;;;10.55;8.40;;;;;;;;;;5094106;28;20199;-64
2021/01/14 09:58:04;;;;;;;12.88;9.70;;;;;;;;;;5093993;28;20194;-63
2021/01/14 10:00:30;;;;;;;26.10;10.80;;;;;;;;;;5094118;28;20202;-64
2021/01/14 10:03:05;;;;;;;13.95;10.30;;;;;;;;;;5094153;28;20191;-64
2021/01/14 10:05:35;;;;;;;14.27;10.43;;;;;;;;;;5094132;28;20182;-63
2021/01/14 10:08:11;;;;;;;14.68;8.88;;;;;;;;;;5094094;28;20199;-64
2021/01/14 10:10:38;;;;;;;14.20;9.10;;;;;;;;;;5094023;28;20203;-64
2021/01/14 10:13:12;;;;;;;14.60;8.30;;;;;;;;;;5092630;28;20283;-64
2021/01/14 10:15:38;;;;;;;13.05;8.32;;;;;;;;;;5112934;27;20195;-64
2021/01/14 10:18:08;;;;;;;14.82;9.38;;;;;;;;;;5092555;28;20199;-64
2021/01/14 10:20:40;;;;;;;11.88;9.35;;;;;;;;;;5093460;28;20274;-64
2021/01/14 10:23:09;;;;;;;11.30;7.45;;;;;;;;;;5093227;28;20202;-64
2021/01/14 10:25:47;;;;;;;13.30;7.15;;;;;;;;;;5093820;28;20270;-64
2021/01/14 10:28:14;;;;;;;11.20;7.32;;;;;;;;;;5093891;28;20175;-64
2021/01/14 10:30:41;;;;;;;15.57;7.93;;;;;;;;;;5093643;28;20218;-65
2021/01/14 10:33:07;;;;;;;10.10;6.63;;;;;;;;;;5094125;28;20202;-65
2021/01/14 10:35:35;;;;;;;9.73;6.85;;;;;;;;;;5093700;28;20195;-65
2021/01/14 10:38:01;;;;;;;11.93;7.82;;;;;;;;;;5093909;28;20206;-65
2021/01/14 10:40:32;;;;;;;16.25;8.90;;;;;;;;;;5093837;28;20647;-65
2021/01/14 10:43:00;;;;;;;9.52;7.38;;;;;;;;;;5093885;28;20178;-65
2021/01/14 10:45:26;;;;;;;8.38;6.70;;;;;;;;;;5102132;28;20203;-64
2021/01/14 10:48:05;;;;;;;9.52;7.00;;;;;;;;;;5093242;28;20227;-65
2021/01/14 10:50:40;;;;;;;8.10;6.47;;;;;;;;;;5093589;28;20199;-64
2021/01/14 10:53:07;;;;;;;7.22;6.15;;;;;;;;;;5093184;28;20203;-65
2021/01/14 10:55:34;;;;;;;9.73;6.22;;;;;;;;;;5093352;28;20205;-65
2021/01/14 10:58:01;;;;;;;10.35;6.70;;;;;;;;;;5093313;28;20552;-65
2021/01/14 11:00:33;;;;;;;7.03;4.97;;;;;;;;;;5093912;28;20187;-65
2021/01/14 11:03:05;;;;;;;11.25;5.78;;;;;;;;;;5093691;28;20647;-64
2021/01/14 11:05:47;;;;;;;8.23;5.32;;;;;;;;;;5093600;28;20203;-65
2021/01/14 11:08:14;;;;;;;7.40;6.10;;;;;;;;;;5093456;28;20665;-64
2021/01/14 11:10:44;;;;;;;5.53;5.03;;;;;;;;;;5093305;28;20215;-65
2021/01/14 11:13:17;;;;;;;6.25;5.25;;;;;;;;;;5093044;28;20199;-64
2021/01/14 11:15:44;;;;;;;6.35;5.22;;;;;;;;;;5112169;28;20199;-64
2021/01/14 11:18:14;;;;;;;7.47;4.97;;;;;;;;;;5093360;28;20192;-65
2021/01/14 11:20:43;;;;;;;5.60;5.00;;;;;;;;;;5093382;28;20202;-65
2021/01/14 11:23:10;;;;;;;7.18;5.00;;;;;;;;;;5093316;28;20198;-65
2021/01/14 11:25:36;;;;;;;5.90;4.57;;;;;;;;;;5093174;28;20194;-65
2021/01/14 11:28:04;;;;;;;7.95;4.93;;;;;;;;;;5093141;28;20553;-65
2021/01/14 11:30:31;;;;;;;6.13;5.45;;;;;;;;;;5093110;28;20224;-65
2021/01/14 11:32:59;;;;;;;13.85;6.30;;;;;;;;;;5094773;28;20570;-65
2021/01/14 11:35:26;;;;;;;7.40;5.28;;;;;;;;;;5096473;28;20211;-64
2021/01/14 11:37:54;;;;;;;9.30;6.63;;;;;;;;;;5096463;28;20194;-64
2021/01/14 11:40:24;;;;;;;7.20;5.40;;;;;;;;;;5097028;28;20187;-64
2021/01/14 11:42:51;;;;;;;6.18;5.55;;;;;;;;;;5097011;28;20542;-64
2021/01/14 11:45:18;;;;;;;9.60;6.05;;;;;;;;;;5106004;27;20202;-64
2021/01/14 11:47:45;;;;;;;7.10;6.00;;;;;;;;;;5096411;28;20694;-64
2021/01/14 11:50:12;;;;;;;8.10;5.93;;;;;;;;;;5094779;28;20210;-65
2021/01/14 11:52:38;;;;;;;7.70;6.60;;;;;;;;;;5095804;28;20734;-65
2021/01/14 11:55:05;;;;;;;7.55;5.65;;;;;;;;;;5098234;28;20191;-65
2021/01/14 11:57:32;;;;;;;7.78;6.00;;;;;;;;;;5097259;28;20195;-65
2021/01/14 11:59:58;;;;;;;8.43;6.47;;;;;;;;;;5096525;28;20204;-65
2021/01/14 12:02:25;;;;;;;6.90;5.68;;;;;;;;;;5096557;28;20195;-66
2021/01/14 12:04:53;;;;;;;8.25;6.68;;;;;;;;;;5096466;28;20187;-65
2021/01/14 12:07:19;;;;;;;7.20;6.00;;;;;;;;;;5096158;28;20278;-65
2021/01/14 12:09:46;;;;;;;7.95;5.57;;;;;;;;;;5096123;28;20194;-65
2021/01/14 12:12:13;;;;;;;9.35;5.88;;;;;;;;;;5095956;28;20325;-65
2021/01/14 12:14:39;;;;;;;8.85;7.00;;;;;;;;;;5109868;27;20660;-65
2021/01/14 12:17:07;;;;;;;10.65;6.18;;;;;;;;;;5101627;27;20199;-65
2021/01/14 12:19:34;;;;;;;13.23;6.75;;;;;;;;;;5096336;28;20203;-63
2021/01/14 12:22:04;;;;;;;7.80;6.25;;;;;;;;;;5096140;28;20202;-65
2021/01/14 12:24:31;;;;;;;9.63;6.57;;;;;;;;;;5096067;28;20700;-65
2021/01/14 12:26:58;;;;;;;9.65;6.72;;;;;;;;;;5095699;28;20191;-65
2021/01/14 12:29:25;;;;;;;9.95;6.78;;;;;;;;;;5096200;28;20211;-64
2021/01/14 12:31:54;;;;;;;11.38;6.82;;;;;;;;;;5095802;28;20582;-63
2021/01/14 12:34:21;;;;;;;9.20;7.30;;;;;;;;;;5095696;28;20179;-63
2021/01/14 12:36:47;;;;;;;9.02;7.03;;;;;;;;;;5095938;28;20704;-63
2021/01/14 12:39:14;;;;;;;7.53;6.75;;;;;;;;;;5095942;28;20203;-64
2021/01/14 12:41:41;;;;;;;5.97;5.28;;;;;;;;;;5095812;28;20221;-64
2021/01/14 12:44:07;;;;;;;6.93;5.40;;;;;;;;;;5100925;27;20341;-63
2021/01/14 12:46:34;;;;;;;9.25;6.40;;;;;;;;;;5107272;27;20210;-65
2021/01/14 12:49:01;;;;;;;6.65;5.45;;;;;;;;;;5095238;28;20211;-64
2021/01/14 12:51:28;;;;;;;12.18;6.95;;;;;;;;;;5095232;28;20310;-65
2021/01/14 12:53:55;;;;;;;7.53;5.13;;;;;;;;;;5094989;28;20228;-65
2021/01/14 12:56:21;;;;;;;10.30;5.07;;;;;;;;;;5095299;28;20222;-65
2021/01/14 12:58:49;;;;;;;6.40;4.97;;;;;;;;;;5093683;28;20213;-65
2021/01/14 13:01:16;;;;;;;5.55;5.05;;;;;;;;;;5095169;28;20203;-65
2021/01/14 13:03:42;;;;;;;6.88;4.93;;;;;;;;;;5094983;28;20559;-65
2021/01/14 13:06:12;;;;;;;8.55;5.78;;;;;;;;;;5095278;28;20236;-65
2021/01/14 13:08:39;;;;;;;5.43;4.93;;;;;;;;;;5095035;28;20196;-65
2021/01/14 13:11:06;;;;;;;5.93;5.35;;;;;;;;;;5094840;28;20222;-65
2021/01/14 13:13:33;;;;;;;5.95;5.38;;;;;;;;;;5095263;28;20602;-65
2021/01/14 13:15:59;;;;;;;6.97;5.72;;;;;;;;;;5113885;27;20231;-65
2021/01/14 13:18:26;;;;;;;6.80;6.07;;;;;;;;;;5094807;28;20214;-65
2021/01/14 13:20:52;;;;;;;7.40;6.22;;;;;;;;;;5094532;28;20187;-65
2021/01/14 13:23:21;;;;;;;6.97;5.93;;;;;;;;;;5094633;28;20215;-65
2021/01/14 13:25:48;;;;;;;8.98;5.35;;;;;;;;;;5094580;28;20189;-65
2021/01/14 13:28:15;;;;;;;7.22;6.00;;;;;;;;;;5094971;28;20554;-65
2021/01/14 13:30:42;;;;;;;9.10;6.38;;;;;;;;;;5094682;28;20187;-64
2021/01/14 13:33:09;;;;;;;7.65;5.72;;;;;;;;;;5094923;28;20195;-64
2021/01/14 13:35:35;;;;;;;7.65;5.93;;;;;;;;;;5094600;28;20261;-64
2021/01/14 13:38:02;;;;;;;8.18;6.53;;;;;;;;;;5093040;28;20199;-64
2021/01/14 13:40:29;;;;;;;11.13;7.65;;;;;;;;;;5094549;28;20207;-65
2021/01/14 13:42:59;;;;;;;7.80;7.00;;;;;;;;;;5094042;28;20655;-65
2021/01/14 13:45:25;;;;;;;11.15;7.10;;;;;;;;;;5113215;27;20202;-65
2021/01/14 13:47:53;;;;;;;10.57;7.28;;;;;;;;;;5093725;28;20234;-65
2021/01/14 13:50:21;;;;;;;11.88;6.60;;;;;;;;;;5093501;28;20208;-65
2021/01/14 13:52:48;;;;;;;8.65;6.63;;;;;;;;;;5094569;28;20219;-65
2021/01/14 13:55:14;;;;;;;19.45;17.48;;;;;;;;;;5094023;28;20195;-65
2021/01/14 13:57:46;;;;;;;14.30;8.73;;;;;;;;;;5093732;28;20526;-65
2021/01/14 14:00:13;;;;;;;13.40;7.65;;;;;;;;;;5094081;28;20191;-65
2021/01/14 14:02:39;;;;;;;9.18;8.23;;;;;;;;;;5092736;28;20207;-65
2021/01/14 14:05:07;;;;;;;11.35;8.88;;;;;;;;;;5094927;28;20193;-65
2021/01/14 14:07:37;;;;;;;13.18;8.55;;;;;;;;;;5094766;28;20202;-64
2021/01/14 14:10:07;;;;;;;12.98;8.80;;;;;;;;;;5094712;28;20258;-64
2021/01/14 14:12:37;;;;;;;11.38;9.32;;;;;;;;;;5093997;28;20241;-65
2021/01/14 14:15:09;;;;;;;13.50;10.93;;;;;;;;;;5112980;27;20217;-65
2021/01/14 14:17:36;;;;;;;19.20;11.73;;;;;;;;;;5094386;28;20634;-64
2021/01/14 14:20:05;;;;;;;16.05;11.50;;;;;;;;;;5094487;28;20209;-65
2021/01/14 14:22:33;;;;;;;12.88;9.38;;;;;;;;;;5094263;28;20191;-65
2021/01/14 14:25:00;;;;;;;14.43;10.52;;;;;;;;;;5094366;28;20207;-64
2021/01/14 14:27:29;;;;;;;15.02;9.10;;;;;;;;;;5094316;28;20285;-65
2021/01/14 14:29:56;;;;;;;11.93;9.40;;;;;;;;;;5093904;28;20256;-64
2021/01/14 14:32:22;;;;;;;15.68;9.43;;;;;;;;;;5093661;28;20226;-64
2021/01/14 14:34:50;;;;;;;11.52;9.13;;;;;;;;;;5094315;28;20606;-62
2021/01/14 14:37:17;;;;;;;17.23;9.13;;;;;;;;;;5094027;28;20273;-64
2021/01/14 14:39:47;;;;;;;13.50;8.77;;;;;;;;;;5092136;28;20210;-64
2021/01/14 14:42:19;;;;;;;11.60;8.65;;;;;;;;;;5093537;28;20179;-64
2021/01/14 14:44:45;;;;;;;9.38;7.80;;;;;;;;;;5114559;27;20581;-64
2021/01/14 14:47:12;;;;;;;10.00;7.95;;;;;;;;;;5095938;28;20309;-64
2021/01/14 14:49:40;;;;;;;10.63;8.00;;;;;;;;;;5093651;28;20215;-64
2021/01/14 14:52:06;;;;;;;12.73;7.47;;;;;;;;;;5093638;28;20221;-63
2021/01/14 14:54:33;;;;;;;10.23;8.50;;;;;;;;;;5093766;28;20302;-63